sensor_id;sensor_type;location;lat;lon;timestamp;temperature;humidity
47482;DHT22;33219;47.410;9.730;2023-11-19T00:00:59;5.50;99.90
47482;DHT22;33219;47.410;9.730;2023-11-19T00:03:26;5.50;99.90
47482;DHT22;33219;47.410;9.730;2023-11-19T00:05:53;5.60;99.90
47482;DHT22;33219;47.410;9.730;2023-11-19T00:08:20;5.60;99.90
47482;DHT22;33219;47.410;9.730;2023-11-19T00:10:46;5.60;99.90
47482;DHT22;33219;47.410;9.730;2023-11-19T00:13:13;5.60;99.90
47482;DHT22;33219;47.410;9.730;2023-11-19T00:15:40;5.60;99.90
47482;DHT22;33219;47.410;9.730;2023-11-19T00:18:07;5.60;99.90
47482;DHT22;33219;47.410;9.730;2023-11-19T00:20:34;5.60;99.90
47482;DHT22;33219;47.410;9.730;2023-11-19T00:23:01;5.70;99.90
47482;DHT22;33219;47.410;9.730;2023-11-19T00:25:28;5.60;99.90
47482;DHT22;33219;47.410;9.730;2023-11-19T00:27:55;5.70;99.90
47482;DHT22;33219;47.410;9.730;2023-11-19T00:30:22;5.70;99.90
47482;DHT22;33219;47.410;9.730;2023-11-19T00:32:49;5.70;99.90
47482;DHT22;33219;47.410;9.730;2023-11-19T00:35:16;5.70;99.90
47482;DHT22;33219;47.410;9.730;2023-11-19T00:37:43;5.70;99.90
47482;DHT22;33219;47.410;9.730;2023-11-19T00:40:11;5.70;99.90
47482;DHT22;33219;47.410;9.730;2023-11-19T00:42:38;5.70;99.90
47482;DHT22;33219;47.410;9.730;2023-11-19T00:45:05;5.70;99.90
47482;DHT22;33219;47.410;9.730;2023-11-19T00:47:35;5.70;99.90
47482;DHT22;33219;47.410;9.730;2023-11-19T00:50:02;5.70;99.90
47482;DHT22;33219;47.410;9.730;2023-11-19T00:52:29;5.60;99.90
47482;DHT22;33219;47.410;9.730;2023-11-19T00:54:56;5.70;99.90
47482;DHT22;33219;47.410;9.730;2023-11-19T00:57:23;5.70;99.90
47482;DHT22;33219;47.410;9.730;2023-11-19T00:59:50;5.70;99.90
47482;DHT22;33219;47.410;9.730;2023-11-19T01:02:17;5.70;99.90
47482;DHT22;33219;47.410;9.730;2023-11-19T01:04:44;5.70;99.90
47482;DHT22;33219;47.410;9.730;2023-11-19T01:07:11;5.70;99.90
47482;DHT22;33219;47.410;9.730;2023-11-19T01:09:43;5.70;99.90
47482;DHT22;33219;47.410;9.730;2023-11-19T01:12:10;5.70;99.90
47482;DHT22;33219;47.410;9.730;2023-11-19T01:14:37;5.70;99.90
47482;DHT22;33219;47.410;9.730;2023-11-19T01:17:04;5.80;99.90
47482;DHT22;33219;47.410;9.730;2023-11-19T01:19:31;5.80;99.90
47482;DHT22;33219;47.410;9.730;2023-11-19T01:21:58;5.80;99.90
47482;DHT22;33219;47.410;9.730;2023-11-19T01:24:25;5.80;99.90
47482;DHT22;33219;47.410;9.730;2023-11-19T01:26:53;5.80;99.90
47482;DHT22;33219;47.410;9.730;2023-11-19T01:29:20;5.80;99.90
47482;DHT22;33219;47.410;9.730;2023-11-19T01:31:47;5.80;99.90
47482;DHT22;33219;47.410;9.730;2023-11-19T01:34:14;5.80;99.90
47482;DHT22;33219;47.410;9.730;2023-11-19T01:36:41;5.80;99.90
47482;DHT22;33219;47.410;9.730;2023-11-19T01:39:08;5.90;99.90
47482;DHT22;33219;47.410;9.730;2023-11-19T01:41:35;5.90;99.90
47482;DHT22;33219;47.410;9.730;2023-11-19T01:44:02;5.90;99.90
47482;DHT22;33219;47.410;9.730;2023-11-19T01:46:29;5.90;99.90
47482;DHT22;33219;47.410;9.730;2023-11-19T01:48:58;5.90;99.90
47482;DHT22;33219;47.410;9.730;2023-11-19T01:51:26;5.90;99.90
47482;DHT22;33219;47.410;9.730;2023-11-19T01:53:53;6.00;99.90
47482;DHT22;33219;47.410;9.730;2023-11-19T01:56:20;6.00;99.90
47482;DHT22;33219;47.410;9.730;2023-11-19T01:58:47;6.00;99.90
47482;DHT22;33219;47.410;9.730;2023-11-19T02:01:15;5.90;99.90
47482;DHT22;33219;47.410;9.730;2023-11-19T02:03:42;6.00;99.90
47482;DHT22;33219;47.410;9.730;2023-11-19T02:06:09;6.00;99.90
47482;DHT22;33219;47.410;9.730;2023-11-19T02:08:36;6.00;99.90
47482;DHT22;33219;47.410;9.730;2023-11-19T02:11:04;6.10;99.90
47482;DHT22;33219;47.410;9.730;2023-11-19T02:13:33;6.10;99.90
47482;DHT22;33219;47.410;9.730;2023-11-19T02:16:02;6.10;99.90
47482;DHT22;33219;47.410;9.730;2023-11-19T02:18:30;6.10;99.90
47482;DHT22;33219;47.410;9.730;2023-11-19T02:20:57;6.10;99.90
47482;DHT22;33219;47.410;9.730;2023-11-19T02:23:26;6.10;99.90
47482;DHT22;33219;47.410;9.730;2023-11-19T02:28:23;6.10;99.90
47482;DHT22;33219;47.410;9.730;2023-11-19T02:30:50;6.10;99.90
47482;DHT22;33219;47.410;9.730;2023-11-19T02:33:17;6.10;99.90
47482;DHT22;33219;47.410;9.730;2023-11-19T02:35:44;6.20;99.90
47482;DHT22;33219;47.410;9.730;2023-11-19T02:38:11;6.20;99.90
47482;DHT22;33219;47.410;9.730;2023-11-19T02:40:39;6.10;99.90
47482;DHT22;33219;47.410;9.730;2023-11-19T02:43:06;6.20;99.90
47482;DHT22;33219;47.410;9.730;2023-11-19T02:45:34;6.20;99.90
47482;DHT22;33219;47.410;9.730;2023-11-19T02:48:01;6.20;99.90
47482;DHT22;33219;47.410;9.730;2023-11-19T02:50:28;6.20;99.90
47482;DHT22;33219;47.410;9.730;2023-11-19T02:52:56;6.20;99.90
47482;DHT22;33219;47.410;9.730;2023-11-19T02:55:23;6.30;99.90
47482;DHT22;33219;47.410;9.730;2023-11-19T02:57:50;6.20;99.90
47482;DHT22;33219;47.410;9.730;2023-11-19T03:00:19;6.20;99.90
47482;DHT22;33219;47.410;9.730;2023-11-19T03:02:48;6.20;99.90
47482;DHT22;33219;47.410;9.730;2023-11-19T03:05:17;6.20;99.90
47482;DHT22;33219;47.410;9.730;2023-11-19T03:07:46;6.20;99.90
47482;DHT22;33219;47.410;9.730;2023-11-19T03:10:13;6.20;99.90
47482;DHT22;33219;47.410;9.730;2023-11-19T03:12:40;6.20;99.90
47482;DHT22;33219;47.410;9.730;2023-11-19T03:15:07;6.30;99.90
47482;DHT22;33219;47.410;9.730;2023-11-19T03:17:38;6.20;99.90
47482;DHT22;33219;47.410;9.730;2023-11-19T03:20:06;6.30;99.90
47482;DHT22;33219;47.410;9.730;2023-11-19T03:22:38;6.20;99.90
47482;DHT22;33219;47.410;9.730;2023-11-19T03:25:05;6.20;99.90
47482;DHT22;33219;47.410;9.730;2023-11-19T03:27:41;6.20;99.90
47482;DHT22;33219;47.410;9.730;2023-11-19T03:30:08;6.20;99.90
47482;DHT22;33219;47.410;9.730;2023-11-19T03:32:38;6.10;99.90
47482;DHT22;33219;47.410;9.730;2023-11-19T03:35:05;6.10;99.90
47482;DHT22;33219;47.410;9.730;2023-11-19T03:37:33;6.10;99.90
47482;DHT22;33219;47.410;9.730;2023-11-19T03:40:00;6.20;99.90
47482;DHT22;33219;47.410;9.730;2023-11-19T03:42:27;6.20;99.90
47482;DHT22;33219;47.410;9.730;2023-11-19T03:44:54;6.20;99.90
47482;DHT22;33219;47.410;9.730;2023-11-19T03:47:20;6.10;99.90
47482;DHT22;33219;47.410;9.730;2023-11-19T03:49:48;6.20;99.90
47482;DHT22;33219;47.410;9.730;2023-11-19T03:52:15;6.10;99.90
47482;DHT22;33219;47.410;9.730;2023-11-19T03:54:42;6.10;99.90
47482;DHT22;33219;47.410;9.730;2023-11-19T03:57:09;6.20;99.90
47482;DHT22;33219;47.410;9.730;2023-11-19T03:59:39;6.10;99.90
47482;DHT22;33219;47.410;9.730;2023-11-19T04:02:06;6.20;99.90
47482;DHT22;33219;47.410;9.730;2023-11-19T04:04:33;6.20;99.90
47482;DHT22;33219;47.410;9.730;2023-11-19T04:07:00;6.20;99.90
47482;DHT22;33219;47.410;9.730;2023-11-19T04:09:29;6.20;99.90
47482;DHT22;33219;47.410;9.730;2023-11-19T04:11:59;6.20;99.90
47482;DHT22;33219;47.410;9.730;2023-11-19T04:14:26;6.20;99.90
47482;DHT22;33219;47.410;9.730;2023-11-19T04:16:53;6.20;99.90
47482;DHT22;33219;47.410;9.730;2023-11-19T04:19:20;6.20;99.90
47482;DHT22;33219;47.410;9.730;2023-11-19T04:21:47;6.20;99.90
47482;DHT22;33219;47.410;9.730;2023-11-19T04:24:14;6.20;99.90
47482;DHT22;33219;47.410;9.730;2023-11-19T04:26:41;6.20;99.90
47482;DHT22;33219;47.410;9.730;2023-11-19T04:29:09;6.20;99.90
47482;DHT22;33219;47.410;9.730;2023-11-19T04:31:37;6.10;99.90
47482;DHT22;33219;47.410;9.730;2023-11-19T04:34:04;6.20;99.90
47482;DHT22;33219;47.410;9.730;2023-11-19T04:36:30;6.10;99.90
47482;DHT22;33219;47.410;9.730;2023-11-19T04:38:59;6.20;99.90
47482;DHT22;33219;47.410;9.730;2023-11-19T04:41:26;6.20;99.90
47482;DHT22;33219;47.410;9.730;2023-11-19T04:43:58;6.20;99.90
47482;DHT22;33219;47.410;9.730;2023-11-19T04:46:25;6.20;99.90
47482;DHT22;33219;47.410;9.730;2023-11-19T04:48:52;6.20;99.90
47482;DHT22;33219;47.410;9.730;2023-11-19T04:51:19;6.20;99.90
47482;DHT22;33219;47.410;9.730;2023-11-19T04:53:46;6.20;99.90
47482;DHT22;33219;47.410;9.730;2023-11-19T04:56:12;6.20;99.90
47482;DHT22;33219;47.410;9.730;2023-11-19T04:58:40;6.20;99.90
47482;DHT22;33219;47.410;9.730;2023-11-19T05:01:12;6.20;99.90
47482;DHT22;33219;47.410;9.730;2023-11-19T05:03:37;6.20;99.90
47482;DHT22;33219;47.410;9.730;2023-11-19T05:06:04;6.20;99.90
47482;DHT22;33219;47.410;9.730;2023-11-19T05:08:30;6.20;99.90
47482;DHT22;33219;47.410;9.730;2023-11-19T05:10:58;6.20;99.90
47482;DHT22;33219;47.410;9.730;2023-11-19T05:13:25;6.20;99.90
47482;DHT22;33219;47.410;9.730;2023-11-19T05:15:52;6.20;99.90
47482;DHT22;33219;47.410;9.730;2023-11-19T05:18:18;6.20;99.90
47482;DHT22;33219;47.410;9.730;2023-11-19T05:20:45;6.20;99.90
47482;DHT22;33219;47.410;9.730;2023-11-19T05:23:12;6.20;99.90
47482;DHT22;33219;47.410;9.730;2023-11-19T05:25:39;6.30;99.90
47482;DHT22;33219;47.410;9.730;2023-11-19T05:28:06;6.30;99.90
47482;DHT22;33219;47.410;9.730;2023-11-19T05:30:33;6.30;99.90
47482;DHT22;33219;47.410;9.730;2023-11-19T05:33:00;6.30;99.90
47482;DHT22;33219;47.410;9.730;2023-11-19T05:35:27;6.30;99.90
47482;DHT22;33219;47.410;9.730;2023-11-19T05:37:54;6.30;99.90
47482;DHT22;33219;47.410;9.730;2023-11-19T05:40:21;6.30;99.90
47482;DHT22;33219;47.410;9.730;2023-11-19T05:42:48;6.30;99.90
47482;DHT22;33219;47.410;9.730;2023-11-19T05:45:15;6.40;99.90
47482;DHT22;33219;47.410;9.730;2023-11-19T05:47:42;6.30;99.90
47482;DHT22;33219;47.410;9.730;2023-11-19T05:50:09;6.40;99.90
47482;DHT22;33219;47.410;9.730;2023-11-19T05:52:36;6.30;99.90
47482;DHT22;33219;47.410;9.730;2023-11-19T05:55:03;6.40;99.90
47482;DHT22;33219;47.410;9.730;2023-11-19T05:57:32;6.40;99.90
47482;DHT22;33219;47.410;9.730;2023-11-19T06:00:00;6.40;99.90
47482;DHT22;33219;47.410;9.730;2023-11-19T06:02:27;6.40;99.90
47482;DHT22;33219;47.410;9.730;2023-11-19T06:04:54;6.30;99.90
47482;DHT22;33219;47.410;9.730;2023-11-19T06:07:20;6.40;99.90
47482;DHT22;33219;47.410;9.730;2023-11-19T06:09:47;6.40;99.90
47482;DHT22;33219;47.410;9.730;2023-11-19T06:12:14;6.40;99.90
47482;DHT22;33219;47.410;9.730;2023-11-19T06:14:41;6.40;99.90
47482;DHT22;33219;47.410;9.730;2023-11-19T06:17:08;6.40;99.90
47482;DHT22;33219;47.410;9.730;2023-11-19T06:19:37;6.30;99.90
47482;DHT22;33219;47.410;9.730;2023-11-19T06:22:06;6.40;99.90
47482;DHT22;33219;47.410;9.730;2023-11-19T06:24:33;6.30;99.90
47482;DHT22;33219;47.410;9.730;2023-11-19T06:27:00;6.40;99.90
47482;DHT22;33219;47.410;9.730;2023-11-19T06:29:26;6.30;99.90
47482;DHT22;33219;47.410;9.730;2023-11-19T06:31:53;6.40;99.90
47482;DHT22;33219;47.410;9.730;2023-11-19T06:34:20;6.30;99.90
47482;DHT22;33219;47.410;9.730;2023-11-19T06:36:47;6.30;99.90
47482;DHT22;33219;47.410;9.730;2023-11-19T06:39:14;6.30;99.90
47482;DHT22;33219;47.410;9.730;2023-11-19T06:41:44;6.20;99.90
47482;DHT22;33219;47.410;9.730;2023-11-19T06:44:12;6.30;99.90
47482;DHT22;33219;47.410;9.730;2023-11-19T06:46:39;6.30;99.90
47482;DHT22;33219;47.410;9.730;2023-11-19T06:49:06;6.30;99.90
47482;DHT22;33219;47.410;9.730;2023-11-19T06:51:40;6.30;99.90
47482;DHT22;33219;47.410;9.730;2023-11-19T06:54:04;6.20;99.90
47482;DHT22;33219;47.410;9.730;2023-11-19T06:56:31;6.20;99.90
47482;DHT22;33219;47.410;9.730;2023-11-19T06:58:58;6.20;99.90
47482;DHT22;33219;47.410;9.730;2023-11-19T07:01:25;6.20;99.90
47482;DHT22;33219;47.410;9.730;2023-11-19T07:03:51;6.20;99.90
47482;DHT22;33219;47.410;9.730;2023-11-19T07:06:18;6.20;99.90
47482;DHT22;33219;47.410;9.730;2023-11-19T07:08:45;6.20;99.90
47482;DHT22;33219;47.410;9.730;2023-11-19T07:11:12;6.20;99.90
47482;DHT22;33219;47.410;9.730;2023-11-19T07:13:43;6.30;99.90
47482;DHT22;33219;47.410;9.730;2023-11-19T07:16:13;6.30;99.90
47482;DHT22;33219;47.410;9.730;2023-11-19T07:18:40;6.30;99.90
47482;DHT22;33219;47.410;9.730;2023-11-19T07:21:09;6.30;99.90
47482;DHT22;33219;47.410;9.730;2023-11-19T07:23:37;6.30;99.90
47482;DHT22;33219;47.410;9.730;2023-11-19T07:26:06;6.40;99.90
47482;DHT22;33219;47.410;9.730;2023-11-19T07:28:35;6.40;99.90
47482;DHT22;33219;47.410;9.730;2023-11-19T07:31:02;6.40;99.90
47482;DHT22;33219;47.410;9.730;2023-11-19T07:33:29;6.40;99.90
47482;DHT22;33219;47.410;9.730;2023-11-19T07:35:55;6.40;99.90
47482;DHT22;33219;47.410;9.730;2023-11-19T07:38:22;6.50;99.90
47482;DHT22;33219;47.410;9.730;2023-11-19T07:40:49;6.50;99.90
47482;DHT22;33219;47.410;9.730;2023-11-19T07:43:16;6.50;99.90
47482;DHT22;33219;47.410;9.730;2023-11-19T07:45:43;6.50;99.90
47482;DHT22;33219;47.410;9.730;2023-11-19T07:48:11;6.50;99.90
47482;DHT22;33219;47.410;9.730;2023-11-19T07:50:39;6.50;99.90
47482;DHT22;33219;47.410;9.730;2023-11-19T07:53:08;6.50;99.90
47482;DHT22;33219;47.410;9.730;2023-11-19T07:55:39;6.60;99.90
47482;DHT22;33219;47.410;9.730;2023-11-19T07:58:03;6.60;99.90
47482;DHT22;33219;47.410;9.730;2023-11-19T08:00:30;6.60;99.90
47482;DHT22;33219;47.410;9.730;2023-11-19T08:02:56;6.60;99.90
47482;DHT22;33219;47.410;9.730;2023-11-19T08:05:23;6.60;99.90
47482;DHT22;33219;47.410;9.730;2023-11-19T08:07:52;6.60;99.90
47482;DHT22;33219;47.410;9.730;2023-11-19T08:10:19;6.60;99.90
47482;DHT22;33219;47.410;9.730;2023-11-19T08:12:46;6.70;99.90
47482;DHT22;33219;47.410;9.730;2023-11-19T08:15:12;6.70;99.90
47482;DHT22;33219;47.410;9.730;2023-11-19T08:17:39;6.70;99.90
47482;DHT22;33219;47.410;9.730;2023-11-19T08:20:06;6.80;99.90
47482;DHT22;33219;47.410;9.730;2023-11-19T08:22:40;6.80;99.90
47482;DHT22;33219;47.410;9.730;2023-11-19T08:25:06;6.80;99.90
47482;DHT22;33219;47.410;9.730;2023-11-19T08:27:34;6.90;99.90
47482;DHT22;33219;47.410;9.730;2023-11-19T08:30:01;6.90;99.90
47482;DHT22;33219;47.410;9.730;2023-11-19T08:32:27;7.00;99.90
47482;DHT22;33219;47.410;9.730;2023-11-19T08:34:54;7.10;99.90
47482;DHT22;33219;47.410;9.730;2023-11-19T08:37:22;7.10;99.90
47482;DHT22;33219;47.410;9.730;2023-11-19T08:39:49;7.10;99.90
47482;DHT22;33219;47.410;9.730;2023-11-19T08:42:16;7.10;99.90
47482;DHT22;33219;47.410;9.730;2023-11-19T08:44:43;7.10;99.90
47482;DHT22;33219;47.410;9.730;2023-11-19T08:47:12;7.00;99.90
47482;DHT22;33219;47.410;9.730;2023-11-19T08:49:39;7.10;99.90
47482;DHT22;33219;47.410;9.730;2023-11-19T08:52:06;7.10;99.90
47482;DHT22;33219;47.410;9.730;2023-11-19T08:54:36;7.20;99.90
47482;DHT22;33219;47.410;9.730;2023-11-19T08:57:03;7.30;99.90
47482;DHT22;33219;47.410;9.730;2023-11-19T08:59:32;7.30;99.90
47482;DHT22;33219;47.410;9.730;2023-11-19T09:01:59;7.20;99.90
47482;DHT22;33219;47.410;9.730;2023-11-19T09:04:25;7.20;99.90
47482;DHT22;33219;47.410;9.730;2023-11-19T09:06:52;7.30;99.90
47482;DHT22;33219;47.410;9.730;2023-11-19T09:09:20;7.30;99.90
47482;DHT22;33219;47.410;9.730;2023-11-19T09:11:47;7.40;99.90
47482;DHT22;33219;47.410;9.730;2023-11-19T09:14:14;7.50;99.90
47482;DHT22;33219;47.410;9.730;2023-11-19T09:16:41;7.40;99.90
47482;DHT22;33219;47.410;9.730;2023-11-19T09:19:08;7.40;99.90
47482;DHT22;33219;47.410;9.730;2023-11-19T09:21:35;7.40;99.90
47482;DHT22;33219;47.410;9.730;2023-11-19T09:24:04;7.50;99.90
47482;DHT22;33219;47.410;9.730;2023-11-19T09:26:31;7.60;99.90
47482;DHT22;33219;47.410;9.730;2023-11-19T09:28:58;7.60;99.90
47482;DHT22;33219;47.410;9.730;2023-11-19T09:31:24;7.60;99.90
47482;DHT22;33219;47.410;9.730;2023-11-19T09:33:51;7.70;99.90
47482;DHT22;33219;47.410;9.730;2023-11-19T09:36:18;7.70;99.90
47482;DHT22;33219;47.410;9.730;2023-11-19T09:38:45;7.80;99.90
47482;DHT22;33219;47.410;9.730;2023-11-19T09:41:12;7.80;99.90
47482;DHT22;33219;47.410;9.730;2023-11-19T09:43:39;8.00;99.90
47482;DHT22;33219;47.410;9.730;2023-11-19T09:46:08;8.00;99.90
47482;DHT22;33219;47.410;9.730;2023-11-19T09:48:37;8.10;99.90
47482;DHT22;33219;47.410;9.730;2023-11-19T09:51:06;8.20;99.90
47482;DHT22;33219;47.410;9.730;2023-11-19T09:53:34;8.20;99.90
47482;DHT22;33219;47.410;9.730;2023-11-19T09:56:02;8.20;99.90
47482;DHT22;33219;47.410;9.730;2023-11-19T09:58:29;8.30;99.90
47482;DHT22;33219;47.410;9.730;2023-11-19T10:01:00;8.30;99.90
47482;DHT22;33219;47.410;9.730;2023-11-19T10:03:32;8.40;99.90
47482;DHT22;33219;47.410;9.730;2023-11-19T10:06:01;8.50;99.90
47482;DHT22;33219;47.410;9.730;2023-11-19T10:08:29;8.50;99.90
47482;DHT22;33219;47.410;9.730;2023-11-19T10:10:55;8.60;99.90
47482;DHT22;33219;47.410;9.730;2023-11-19T10:13:26;8.50;99.90
47482;DHT22;33219;47.410;9.730;2023-11-19T10:15:51;8.50;99.90
47482;DHT22;33219;47.410;9.730;2023-11-19T10:18:18;8.40;99.90
47482;DHT22;33219;47.410;9.730;2023-11-19T10:20:46;8.50;99.90
47482;DHT22;33219;47.410;9.730;2023-11-19T10:23:13;8.40;99.90
47482;DHT22;33219;47.410;9.730;2023-11-19T10:25:40;8.50;99.90
47482;DHT22;33219;47.410;9.730;2023-11-19T10:28:07;8.60;99.90
47482;DHT22;33219;47.410;9.730;2023-11-19T10:30:34;8.60;99.90
47482;DHT22;33219;47.410;9.730;2023-11-19T10:33:04;8.70;99.90
47482;DHT22;33219;47.410;9.730;2023-11-19T10:35:35;8.70;99.90
47482;DHT22;33219;47.410;9.730;2023-11-19T10:38:14;8.80;99.90
47482;DHT22;33219;47.410;9.730;2023-11-19T10:40:44;8.80;99.90
47482;DHT22;33219;47.410;9.730;2023-11-19T10:43:11;8.80;99.90
47482;DHT22;33219;47.410;9.730;2023-11-19T10:45:38;8.90;99.90
47482;DHT22;33219;47.410;9.730;2023-11-19T10:48:05;8.90;99.90
47482;DHT22;33219;47.410;9.730;2023-11-19T10:50:34;8.90;99.90
47482;DHT22;33219;47.410;9.730;2023-11-19T10:53:02;9.00;99.90
47482;DHT22;33219;47.410;9.730;2023-11-19T10:55:30;9.00;99.90
47482;DHT22;33219;47.410;9.730;2023-11-19T10:57:58;8.90;99.90
47482;DHT22;33219;47.410;9.730;2023-11-19T11:00:26;8.90;99.90
47482;DHT22;33219;47.410;9.730;2023-11-19T11:02:54;9.00;99.90
47482;DHT22;33219;47.410;9.730;2023-11-19T11:05:22;9.00;99.90
47482;DHT22;33219;47.410;9.730;2023-11-19T11:07:49;9.00;99.90
47482;DHT22;33219;47.410;9.730;2023-11-19T11:10:17;9.00;99.90
47482;DHT22;33219;47.410;9.730;2023-11-19T11:12:46;8.90;99.90
47482;DHT22;33219;47.410;9.730;2023-11-19T11:15:15;9.00;99.90
47482;DHT22;33219;47.410;9.730;2023-11-19T11:17:43;8.90;99.90
47482;DHT22;33219;47.410;9.730;2023-11-19T11:20:12;8.90;99.90
47482;DHT22;33219;47.410;9.730;2023-11-19T11:22:46;8.90;99.90
47482;DHT22;33219;47.410;9.730;2023-11-19T11:38:10;9.20;99.90
47482;DHT22;33219;47.410;9.730;2023-11-19T11:40:37;9.30;99.90
47482;DHT22;33219;47.410;9.730;2023-11-19T11:43:04;9.40;99.90
47482;DHT22;33219;47.410;9.730;2023-11-19T11:45:40;9.40;99.90
47482;DHT22;33219;47.410;9.730;2023-11-19T11:48:09;9.40;99.90
47482;DHT22;33219;47.410;9.730;2023-11-19T11:50:54;9.40;99.90
47482;DHT22;33219;47.410;9.730;2023-11-19T11:53:17;9.50;99.90
47482;DHT22;33219;47.410;9.730;2023-11-19T11:58:25;9.40;99.90
47482;DHT22;33219;47.410;9.730;2023-11-19T12:00:46;9.50;99.90
47482;DHT22;33219;47.410;9.730;2023-11-19T12:03:13;9.50;99.90
47482;DHT22;33219;47.410;9.730;2023-11-19T12:05:40;9.50;99.90
47482;DHT22;33219;47.410;9.730;2023-11-19T12:08:09;9.60;99.90
47482;DHT22;33219;47.410;9.730;2023-11-19T12:13:13;9.70;99.90
47482;DHT22;33219;47.410;9.730;2023-11-19T12:18:24;9.90;99.90
47482;DHT22;33219;47.410;9.730;2023-11-19T12:20:52;10.10;99.90
47482;DHT22;33219;47.410;9.730;2023-11-19T12:23:19;10.30;99.90
47482;DHT22;33219;47.410;9.730;2023-11-19T12:25:46;10.30;99.90
47482;DHT22;33219;47.410;9.730;2023-11-19T12:28:14;10.20;99.90
47482;DHT22;33219;47.410;9.730;2023-11-19T12:30:43;10.30;99.90
47482;DHT22;33219;47.410;9.730;2023-11-19T12:33:10;10.20;99.90
47482;DHT22;33219;47.410;9.730;2023-11-19T12:35:41;10.20;99.90
47482;DHT22;33219;47.410;9.730;2023-11-19T12:38:06;10.20;99.90
47482;DHT22;33219;47.410;9.730;2023-11-19T12:40:33;10.10;99.90
47482;DHT22;33219;47.410;9.730;2023-11-19T12:42:59;10.20;99.90
47482;DHT22;33219;47.410;9.730;2023-11-19T12:45:36;10.20;99.90
47482;DHT22;33219;47.410;9.730;2023-11-19T12:48:07;10.10;99.90
47482;DHT22;33219;47.410;9.730;2023-11-19T12:50:51;10.00;99.90
47482;DHT22;33219;47.410;9.730;2023-11-19T12:53:20;9.90;99.90
47482;DHT22;33219;47.410;9.730;2023-11-19T12:55:47;9.90;99.90
47482;DHT22;33219;47.410;9.730;2023-11-19T13:00:59;9.80;99.90
47482;DHT22;33219;47.410;9.730;2023-11-19T13:03:35;9.80;99.90
47482;DHT22;33219;47.410;9.730;2023-11-19T13:06:10;9.80;99.90
47482;DHT22;33219;47.410;9.730;2023-11-19T13:08:41;9.90;99.90
47482;DHT22;33219;47.410;9.730;2023-11-19T13:11:12;9.80;99.90
47482;DHT22;33219;47.410;9.730;2023-11-19T13:13:54;10.00;99.90
47482;DHT22;33219;47.410;9.730;2023-11-19T13:16:21;10.00;99.90
47482;DHT22;33219;47.410;9.730;2023-11-19T13:18:48;10.00;99.90
47482;DHT22;33219;47.410;9.730;2023-11-19T13:21:15;10.00;99.90
47482;DHT22;33219;47.410;9.730;2023-11-19T13:23:42;10.00;99.90
47482;DHT22;33219;47.410;9.730;2023-11-19T13:26:10;10.10;99.90
47482;DHT22;33219;47.410;9.730;2023-11-19T13:28:37;10.00;99.90
47482;DHT22;33219;47.410;9.730;2023-11-19T13:31:04;10.10;99.90
47482;DHT22;33219;47.410;9.730;2023-11-19T13:33:31;10.00;99.90
47482;DHT22;33219;47.410;9.730;2023-11-19T13:35:58;10.10;99.90
47482;DHT22;33219;47.410;9.730;2023-11-19T13:38:27;10.00;99.90
47482;DHT22;33219;47.410;9.730;2023-11-19T13:40:53;10.00;99.90
47482;DHT22;33219;47.410;9.730;2023-11-19T13:43:20;10.00;99.90
47482;DHT22;33219;47.410;9.730;2023-11-19T13:45:47;10.10;99.90
47482;DHT22;33219;47.410;9.730;2023-11-19T13:48:14;10.00;99.90
47482;DHT22;33219;47.410;9.730;2023-11-19T13:50:41;10.00;99.90
47482;DHT22;33219;47.410;9.730;2023-11-19T13:53:08;10.10;99.90
47482;DHT22;33219;47.410;9.730;2023-11-19T13:55:35;10.10;99.90
47482;DHT22;33219;47.410;9.730;2023-11-19T13:58:02;10.20;99.90
47482;DHT22;33219;47.410;9.730;2023-11-19T14:00:28;10.20;99.90
47482;DHT22;33219;47.410;9.730;2023-11-19T14:02:55;10.20;99.90
47482;DHT22;33219;47.410;9.730;2023-11-19T14:05:22;10.20;99.90
47482;DHT22;33219;47.410;9.730;2023-11-19T14:07:49;10.30;99.90
47482;DHT22;33219;47.410;9.730;2023-11-19T14:10:17;10.30;99.90
47482;DHT22;33219;47.410;9.730;2023-11-19T14:12:44;10.30;99.90
47482;DHT22;33219;47.410;9.730;2023-11-19T14:15:11;10.30;99.90
47482;DHT22;33219;47.410;9.730;2023-11-19T14:17:39;10.20;99.90
47482;DHT22;33219;47.410;9.730;2023-11-19T14:20:06;10.30;99.90
47482;DHT22;33219;47.410;9.730;2023-11-19T14:22:44;10.30;99.90
47482;DHT22;33219;47.410;9.730;2023-11-19T14:25:10;10.20;99.90
47482;DHT22;33219;47.410;9.730;2023-11-19T14:27:37;10.10;99.90
47482;DHT22;33219;47.410;9.730;2023-11-19T14:30:08;10.10;99.90
47482;DHT22;33219;47.410;9.730;2023-11-19T14:32:37;10.00;99.90
47482;DHT22;33219;47.410;9.730;2023-11-19T14:35:04;10.00;99.90
47482;DHT22;33219;47.410;9.730;2023-11-19T14:37:31;10.10;99.90
47482;DHT22;33219;47.410;9.730;2023-11-19T14:39:58;10.10;99.90
47482;DHT22;33219;47.410;9.730;2023-11-19T14:42:25;10.00;99.90
47482;DHT22;33219;47.410;9.730;2023-11-19T14:44:52;10.00;99.90
47482;DHT22;33219;47.410;9.730;2023-11-19T14:47:22;9.90;99.90
47482;DHT22;33219;47.410;9.730;2023-11-19T14:49:49;9.90;99.90
47482;DHT22;33219;47.410;9.730;2023-11-19T14:52:16;10.00;99.90
47482;DHT22;33219;47.410;9.730;2023-11-19T14:54:43;9.90;99.90
47482;DHT22;33219;47.410;9.730;2023-11-19T14:57:10;10.00;99.90
47482;DHT22;33219;47.410;9.730;2023-11-19T14:59:37;10.00;99.90
47482;DHT22;33219;47.410;9.730;2023-11-19T15:02:03;10.00;99.90
47482;DHT22;33219;47.410;9.730;2023-11-19T15:04:31;10.00;99.90
47482;DHT22;33219;47.410;9.730;2023-11-19T15:06:59;10.00;99.90
47482;DHT22;33219;47.410;9.730;2023-11-19T15:09:26;10.10;99.90
47482;DHT22;33219;47.410;9.730;2023-11-19T15:11:56;10.20;99.90
47482;DHT22;33219;47.410;9.730;2023-11-19T15:14:24;10.20;99.90
47482;DHT22;33219;47.410;9.730;2023-11-19T15:16:51;10.30;99.90
47482;DHT22;33219;47.410;9.730;2023-11-19T15:19:18;10.30;99.90
47482;DHT22;33219;47.410;9.730;2023-11-19T15:21:46;10.30;99.90
47482;DHT22;33219;47.410;9.730;2023-11-19T15:24:13;10.40;99.90
47482;DHT22;33219;47.410;9.730;2023-11-19T15:26:39;10.40;99.90
47482;DHT22;33219;47.410;9.730;2023-11-19T15:29:06;10.50;99.90
47482;DHT22;33219;47.410;9.730;2023-11-19T15:31:33;10.40;99.90
47482;DHT22;33219;47.410;9.730;2023-11-19T15:34:00;10.30;99.90
47482;DHT22;33219;47.410;9.730;2023-11-19T15:36:28;10.30;99.90
47482;DHT22;33219;47.410;9.730;2023-11-19T15:38:56;10.20;99.90
47482;DHT22;33219;47.410;9.730;2023-11-19T15:41:22;10.20;99.90
47482;DHT22;33219;47.410;9.730;2023-11-19T15:43:49;10.10;99.90
47482;DHT22;33219;47.410;9.730;2023-11-19T15:46:16;10.00;99.90
47482;DHT22;33219;47.410;9.730;2023-11-19T15:48:43;10.00;99.90
47482;DHT22;33219;47.410;9.730;2023-11-19T15:51:10;10.00;99.90
47482;DHT22;33219;47.410;9.730;2023-11-19T15:53:36;10.00;99.90
47482;DHT22;33219;47.410;9.730;2023-11-19T15:56:05;9.90;99.90
47482;DHT22;33219;47.410;9.730;2023-11-19T15:58:31;9.90;99.90
47482;DHT22;33219;47.410;9.730;2023-11-19T16:01:00;9.80;99.90
47482;DHT22;33219;47.410;9.730;2023-11-19T16:03:26;9.80;99.90
47482;DHT22;33219;47.410;9.730;2023-11-19T16:05:55;9.80;99.90
47482;DHT22;33219;47.410;9.730;2023-11-19T16:08:22;9.80;99.90
47482;DHT22;33219;47.410;9.730;2023-11-19T16:10:48;9.80;99.90